Time;durP1;ratioP1;P1;durP2;ratioP2;P2;SDS_P1;SDS_P2;PMS_P1;PMS_P2;Temp;Humidity;BMP_temperature;BMP_pressure;BME280_temperature;BME280_humidity;BME280_pressure;Samples;Min_cycle;Max_cycle;Signal;HPM_P1;HPM_P2
2021/12/20 00:01:39;;;;;;;6.77;2.00;;;3.10;97.30;;;;;;4958149;28;20286;-84
2021/12/20 00:04:05;;;;;;;7.80;2.87;;;3.10;97.30;;;;;;4958595;28;20183;-84
2021/12/20 00:06:30;;;;;;;5.77;2.17;;;3.00;97.30;;;;;;4958937;28;20568;-84
2021/12/20 00:08:56;;;;;;;1.93;1.60;;;3.00;97.30;;;;;;4976222;28;20171;-84
2021/12/20 00:11:21;;;;;;;4.93;2.23;;;2.90;97.30;;;;;;4958304;28;20205;-84
2021/12/20 00:13:47;;;;;;;13.13;2.40;;;2.90;97.30;;;;;;4975806;28;20185;-84
2021/12/20 00:16:12;;;;;;;15.10;2.83;;;2.80;97.30;;;;;;4958309;28;20322;-84
2021/12/20 00:18:38;;;;;;;5.03;1.97;;;2.80;97.30;;;;;;4957614;28;20182;-84
2021/12/20 00:21:04;;;;;;;10.90;2.37;;;2.70;97.30;;;;;;4960982;28;20201;-84
2021/12/20 00:23:29;;;;;;;3.07;1.83;;;2.70;97.30;;;;;;4973394;28;20642;-84
2021/12/20 00:25:56;;;;;;;5.80;1.93;;;2.70;97.30;;;;;;4973385;28;20920;-85
2021/12/20 00:28:21;;;;;;;7.23;2.43;;;2.70;97.30;;;;;;4963986;28;20228;-84
2021/12/20 00:30:47;;;;;;;5.07;1.60;;;2.60;97.30;;;;;;4957228;28;20444;-84
2021/12/20 00:33:14;;;;;;;8.70;2.10;;;2.60;97.30;;;;;;4957593;28;20178;-84
2021/12/20 00:35:39;;;;;;;11.17;2.53;;;2.60;97.30;;;;;;4957755;28;20421;-85
2021/12/20 00:40:50;;;;;;;3.87;1.90;;;2.50;97.30;;;;;;4975309;28;20269;-84
2021/12/20 00:43:16;;;;;;;5.80;2.13;;;2.50;97.30;;;;;;4973253;28;20422;-84
2021/12/20 00:45:41;;;;;;;7.30;2.27;;;2.50;97.30;;;;;;4973787;28;20649;-84
2021/12/20 00:48:07;;;;;;;7.87;1.60;;;2.50;97.30;;;;;;4973208;28;20198;-85
2021/12/20 00:50:34;;;;;;;8.83;2.10;;;2.50;97.30;;;;;;4973029;28;20518;-85
2021/12/20 00:52:59;;;;;;;13.80;2.53;;;2.40;97.30;;;;;;4987098;28;20171;-83
2021/12/20 00:55:27;;;;;;;9.60;1.60;;;2.40;97.30;;;;;;4957331;28;20923;-84
2021/12/20 00:57:55;;;;;;;16.83;2.60;;;2.40;97.30;;;;;;4957254;28;20561;-85
2021/12/20 01:00:24;;;;;;;5.50;2.40;;;2.30;97.30;;;;;;4957318;28;20418;-84
2021/12/20 01:02:50;;;;;;;8.20;2.30;;;2.30;97.30;;;;;;4974200;28;20469;-84
2021/12/20 01:05:17;;;;;;;11.47;2.10;;;2.20;97.30;;;;;;4957130;28;21167;-84
2021/12/20 01:07:42;;;;;;;4.80;1.70;;;2.20;97.30;;;;;;4956205;28;20464;-84
2021/12/20 01:10:09;;;;;;;8.20;2.50;;;2.20;97.30;;;;;;4957088;28;20425;-84
2021/12/20 01:12:46;;;;;;;11.10;2.17;;;2.10;97.30;;;;;;4957045;28;20198;-84
2021/12/20 01:15:21;;;;;;;4.23;2.10;;;2.10;97.30;;;;;;4956966;28;20421;-84
2021/12/20 01:17:47;;;;;;;19.30;3.03;;;2.10;97.30;;;;;;4956908;28;20420;-84
2021/12/20 01:20:13;;;;;;;17.23;3.50;;;2.10;97.30;;;;;;4974227;28;20508;-83
2021/12/20 01:22:42;;;;;;;5.83;1.77;;;2.00;97.30;;;;;;4974855;28;20418;-84
2021/12/20 01:25:08;;;;;;;5.67;1.90;;;2.00;97.30;;;;;;4957064;28;21006;-84
2021/12/20 01:27:33;;;;;;;4.93;1.90;;;2.00;97.30;;;;;;4957071;28;20454;-84
2021/12/20 01:29:59;;;;;;;7.73;1.90;;;2.00;97.30;;;;;;4957015;28;20824;-85
2021/12/20 01:32:24;;;;;;;5.43;1.90;;;1.90;97.30;;;;;;4956787;28;20700;-83
2021/12/20 01:34:50;;;;;;;10.40;2.40;;;1.90;97.30;;;;;;4956942;28;20326;-84
2021/12/20 01:37:15;;;;;;;6.17;1.53;;;1.90;97.30;;;;;;4956460;28;20197;-84
2021/12/20 01:39:42;;;;;;;5.43;2.60;;;1.90;97.30;;;;;;4957042;28;20183;-84
2021/12/20 01:42:08;;;;;;;7.53;1.93;;;1.90;97.30;;;;;;4956587;28;20207;-84
2021/12/20 01:44:33;;;;;;;9.13;2.10;;;1.90;97.30;;;;;;4956523;28;20418;-84
2021/12/20 01:47:02;;;;;;;5.37;2.13;;;1.90;97.30;;;;;;4956832;28;20471;-84
2021/12/20 01:49:30;;;;;;;11.80;1.80;;;1.80;97.30;;;;;;4957229;28;20181;-84
2021/12/20 01:54:24;;;;;;;3.83;1.77;;;1.80;97.30;;;;;;4974656;28;20421;-84
2021/12/20 01:56:50;;;;;;;14.23;4.13;;;1.80;97.30;;;;;;4956845;28;20422;-84
2021/12/20 01:59:17;;;;;;;4.50;2.10;;;1.80;97.30;;;;;;4956866;28;20189;-85
2021/12/20 02:01:45;;;;;;;15.20;2.70;;;1.80;97.30;;;;;;4956668;28;20485;-84
2021/12/20 02:04:12;;;;;;;4.97;1.90;;;1.80;97.30;;;;;;4956936;28;20433;-84
2021/12/20 02:06:45;;;;;;;8.73;1.83;;;1.70;97.30;;;;;;4973946;28;20461;-85
2021/12/20 02:09:19;;;;;;;7.67;1.90;;;1.70;97.30;;;;;;4956608;28;20407;-84
2021/12/20 02:11:47;;;;;;;10.43;1.73;;;1.70;97.30;;;;;;4955970;28;20440;-84
2021/12/20 02:14:14;;;;;;;9.70;2.20;;;1.70;97.30;;;;;;4956718;28;20422;-84
2021/12/20 02:16:42;;;;;;;6.97;2.00;;;1.60;97.30;;;;;;4956498;28;21213;-84
2021/12/20 02:19:10;;;;;;;3.93;1.97;;;1.60;97.30;;;;;;4954898;28;20427;-83
2021/12/20 02:21:36;;;;;;;6.93;1.83;;;1.50;97.30;;;;;;4956873;29;20525;-84
2021/12/20 02:24:02;;;;;;;4.90;1.90;;;1.50;97.30;;;;;;4958449;29;21186;-84
2021/12/20 02:26:28;;;;;;;4.70;1.60;;;1.50;97.30;;;;;;4956606;28;20189;-84
2021/12/20 02:28:55;;;;;;;16.80;2.40;;;1.50;97.30;;;;;;4977657;28;20414;-83
2021/12/20 02:39:24;;;;;;;7.33;1.77;;;1.50;97.30;;;;;;4977035;28;20417;-85
2021/12/20 02:41:49;;;;;;;7.10;1.90;;;1.40;97.30;;;;;;4976404;28;20438;-86
2021/12/20 02:44:19;;;;;;;6.00;1.80;;;1.40;97.30;;;;;;4960233;28;20198;-84
2021/12/20 02:49:16;;;;;;;5.07;2.07;;;1.40;97.30;;;;;;4977668;28;20781;-84
2021/12/20 02:51:43;;;;;;;8.27;1.80;;;1.40;97.30;;;;;;4959837;28;20509;-84
2021/12/20 02:54:10;;;;;;;4.43;1.77;;;1.40;97.30;;;;;;4976589;28;20418;-85
2021/12/20 02:56:36;;;;;;;5.50;2.10;;;1.30;97.30;;;;;;4959469;28;20429;-83
2021/12/20 02:59:03;;;;;;;9.50;2.00;;;1.30;97.30;;;;;;4959497;28;20426;-85
2021/12/20 03:01:28;;;;;;;7.63;2.07;;;1.30;97.30;;;;;;4976424;28;20466;-85
2021/12/20 03:03:55;;;;;;;4.27;2.00;;;1.30;97.30;;;;;;4958868;28;20910;-85
2021/12/20 03:06:26;;;;;;;4.90;1.80;;;1.30;97.30;;;;;;4958947;28;20252;-85
2021/12/20 03:08:54;;;;;;;9.87;2.00;;;1.30;97.30;;;;;;4976402;28;20390;-86
2021/12/20 03:11:22;;;;;;;10.23;2.37;;;1.30;97.30;;;;;;4958982;28;20965;-85
2021/12/20 03:13:52;;;;;;;4.00;1.77;;;1.20;97.30;;;;;;4975966;28;20414;-85
2021/12/20 03:16:17;;;;;;;3.10;1.80;;;1.20;97.30;;;;;;4959612;28;20461;-85
2021/12/20 03:18:43;;;;;;;6.43;2.10;;;1.20;97.30;;;;;;4958173;28;20424;-85
2021/12/20 03:21:09;;;;;;;5.13;2.03;;;1.20;97.30;;;;;;4959609;28;20298;-85
2021/12/20 03:23:35;;;;;;;6.60;2.20;;;1.20;97.30;;;;;;4958364;28;20179;-85
2021/12/20 03:26:03;;;;;;;3.03;2.03;;;1.20;97.30;;;;;;4959182;28;20186;-85
2021/12/20 03:28:28;;;;;;;6.00;2.00;;;1.10;97.30;;;;;;4958634;28;20461;-85
2021/12/20 03:30:54;;;;;;;6.37;2.37;;;1.10;97.30;;;;;;4957640;28;20434;-85
2021/12/20 03:33:19;;;;;;;7.20;2.20;;;1.10;97.30;;;;;;4959177;28;20186;-85
2021/12/20 03:35:45;;;;;;;4.73;2.07;;;1.10;97.30;;;;;;4959232;28;20204;-84
2021/12/20 03:38:10;;;;;;;6.13;2.20;;;1.20;97.30;;;;;;4958833;28;20229;-85
2021/12/20 03:40:37;;;;;;;7.40;2.17;;;1.10;97.30;;;;;;4976816;28;20233;-85
2021/12/20 03:43:03;;;;;;;8.20;1.77;;;1.10;97.30;;;;;;4958911;28;20273;-85
2021/12/20 03:45:28;;;;;;;5.20;1.90;;;1.10;97.30;;;;;;4958898;28;20429;-85
2021/12/20 03:47:54;;;;;;;8.03;2.10;;;1.10;97.30;;;;;;4957774;28;20820;-85
2021/12/20 03:50:20;;;;;;;6.40;2.10;;;1.10;97.30;;;;;;4957970;28;20178;-85
2021/12/20 03:52:45;;;;;;;16.33;2.33;;;1.00;97.30;;;;;;4957852;28;20188;-85
2021/12/20 03:55:12;;;;;;;6.00;1.90;;;1.00;97.30;;;;;;4958335;28;20414;-85
2021/12/20 03:57:38;;;;;;;10.00;2.67;;;1.00;97.30;;;;;;4957909;28;20224;-85
2021/12/20 04:00:07;;;;;;;4.23;1.87;;;1.00;97.30;;;;;;4975494;28;20422;-86
2021/12/20 04:02:39;;;;;;;4.80;2.30;;;1.00;97.30;;;;;;4958164;28;20238;-85
2021/12/20 04:05:05;;;;;;;5.60;2.13;;;1.00;97.30;;;;;;4958164;28;20410;-85
2021/12/20 04:07:30;;;;;;;6.73;1.90;;;1.00;97.30;;;;;;4957600;28;20465;-85
2021/12/20 04:09:56;;;;;;;6.33;1.97;;;1.00;97.30;;;;;;4957258;28;20925;-85
2021/12/20 04:12:21;;;;;;;6.40;1.97;;;1.00;97.30;;;;;;4957730;28;20624;-84
2021/12/20 04:14:47;;;;;;;7.50;1.83;;;1.00;97.30;;;;;;4957261;28;20607;-85
2021/12/20 04:17:12;;;;;;;6.83;2.20;;;0.90;97.30;;;;;;4957472;28;20190;-85
2021/12/20 04:19:38;;;;;;;5.50;2.00;;;1.00;97.30;;;;;;4957556;28;20558;-85
2021/12/20 04:22:03;;;;;;;2.13;1.97;;;0.90;97.30;;;;;;4957615;28;20203;-86
2021/12/20 04:24:29;;;;;;;4.40;2.00;;;0.90;97.30;;;;;;4974773;28;20206;-86
2021/12/20 04:26:54;;;;;;;3.73;1.73;;;0.90;97.30;;;;;;4957581;28;20198;-86
2021/12/20 04:29:20;;;;;;;15.67;2.33;;;0.90;97.30;;;;;;4957753;28;20187;-86
2021/12/20 04:31:46;;;;;;;7.40;1.80;;;1.00;97.30;;;;;;4957864;28;20283;-85
2021/12/20 04:34:11;;;;;;;10.67;2.10;;;0.90;97.30;;;;;;4957817;28;20633;-86
2021/12/20 04:36:37;;;;;;;7.50;2.30;;;0.90;97.30;;;;;;4957598;28;20425;-86
2021/12/20 04:39:07;;;;;;;8.07;2.00;;;0.90;97.30;;;;;;4941495;28;20194;-86
2021/12/20 04:41:32;;;;;;;9.37;2.20;;;1.00;97.30;;;;;;4956831;28;20246;-86
2021/12/20 04:43:58;;;;;;;12.30;1.80;;;0.90;97.30;;;;;;4957041;28;20465;-86
2021/12/20 04:46:23;;;;;;;4.73;2.13;;;1.00;97.30;;;;;;4974301;28;20183;-86
2021/12/20 04:48:49;;;;;;;11.17;1.67;;;0.90;97.30;;;;;;4974387;28;20176;-86
2021/12/20 04:51:14;;;;;;;14.23;2.43;;;0.90;97.30;;;;;;4957335;28;20572;-86
2021/12/20 04:53:40;;;;;;;11.63;2.43;;;0.90;97.30;;;;;;4957896;28;20178;-86
2021/12/20 04:56:12;;;;;;;4.13;1.87;;;0.90;97.30;;;;;;4955300;28;20175;-87
2021/12/20 04:58:37;;;;;;;8.63;2.03;;;0.80;97.30;;;;;;4949688;28;20282;-84
2021/12/20 05:01:03;;;;;;;8.57;1.87;;;0.80;97.30;;;;;;4955590;28;20484;-83
2021/12/20 05:03:28;;;;;;;4.47;2.47;;;0.80;97.30;;;;;;4970366;28;20201;-85
2021/12/20 05:05:54;;;;;;;7.43;2.50;;;0.80;97.30;;;;;;4988300;28;20173;-83
2021/12/20 05:08:20;;;;;;;5.20;2.50;;;0.80;97.30;;;;;;4974823;28;20711;-84
2021/12/20 05:10:45;;;;;;;7.23;2.37;;;0.80;97.30;;;;;;4965472;28;20248;-85
2021/12/20 05:13:13;;;;;;;2.80;2.20;;;0.80;97.30;;;;;;4973445;28;21035;-85
2021/12/20 05:15:39;;;;;;;9.83;1.93;;;0.80;97.30;;;;;;4981245;28;20184;-84
2021/12/20 05:18:07;;;;;;;6.73;2.37;;;0.80;97.30;;;;;;4974120;28;20461;-85
2021/12/20 05:20:33;;;;;;;6.67;1.70;;;0.80;97.30;;;;;;4984626;28;20479;-85
2021/12/20 05:22:59;;;;;;;11.10;5.37;;;0.80;97.30;;;;;;4972920;28;20413;-85
2021/12/20 05:25:26;;;;;;;5.07;2.40;;;0.90;97.30;;;;;;4984949;28;20506;-86
2021/12/20 05:27:52;;;;;;;6.17;2.37;;;0.90;97.30;;;;;;4976391;28;20514;-86
2021/12/20 05:30:19;;;;;;;14.00;3.57;;;0.80;97.30;;;;;;4987835;28;20416;-85
2021/12/20 05:32:45;;;;;;;3.23;1.90;;;0.80;97.30;;;;;;4976284;28;20710;-87
2021/12/20 05:35:12;;;;;;;4.03;1.80;;;0.70;97.30;;;;;;4976457;28;20455;-86
2021/12/20 05:37:38;;;;;;;11.10;2.30;;;0.70;97.30;;;;;;4976671;28;20528;-86
2021/12/20 05:40:09;;;;;;;6.43;2.70;;;0.60;97.30;;;;;;4991925;28;20429;-86
2021/12/20 05:42:35;;;;;;;5.83;2.23;;;0.60;97.30;;;;;;4975960;28;20954;-86
2021/12/20 05:45:00;;;;;;;5.67;2.93;;;0.60;97.30;;;;;;4976425;28;20440;-86
2021/12/20 05:47:26;;;;;;;5.83;2.03;;;0.60;97.30;;;;;;4976034;28;20216;-86
2021/12/20 05:49:52;;;;;;;7.03;2.00;;;0.50;97.30;;;;;;4976056;28;20625;-85
2021/12/20 05:52:18;;;;;;;7.00;1.87;;;0.50;97.30;;;;;;4976227;28;20715;-87
2021/12/20 05:54:44;;;;;;;9.43;1.83;;;0.50;97.30;;;;;;4975980;28;20429;-86
2021/12/20 05:57:11;;;;;;;10.23;2.63;;;0.40;97.30;;;;;;4996654;28;20436;-87
2021/12/20 05:59:36;;;;;;;9.20;2.40;;;0.40;97.30;;;;;;4976707;28;20512;-86
2021/12/20 06:02:02;;;;;;;7.40;1.97;;;0.40;97.30;;;;;;4973389;28;20508;-86
2021/12/20 06:04:28;;;;;;;14.10;2.50;;;0.40;97.30;;;;;;4976907;28;20187;-84
2021/12/20 06:06:53;;;;;;;11.80;2.20;;;0.40;97.30;;;;;;4968430;28;20217;-88
2021/12/20 06:09:19;;;;;;;5.30;1.70;;;0.30;97.30;;;;;;4968323;28;20269;-84
2021/12/20 06:11:44;;;;;;;2.80;2.17;;;0.30;97.30;;;;;;4975986;28;20209;-84
2021/12/20 06:14:10;;;;;;;12.10;2.30;;;0.30;97.30;;;;;;4976780;28;20189;-86
2021/12/20 06:16:36;;;;;;;7.23;2.30;;;0.30;97.30;;;;;;4972102;28;20527;-84
2021/12/20 06:19:02;;;;;;;9.20;2.33;;;0.30;97.30;;;;;;4976961;28;20185;-84
2021/12/20 06:21:28;;;;;;;9.63;2.50;;;0.30;97.30;;;;;;4972350;28;20945;-84
2021/12/20 06:23:53;;;;;;;7.07;2.03;;;0.30;97.30;;;;;;4973373;28;20429;-84
2021/12/20 06:26:23;;;;;;;5.07;2.10;;;0.30;97.30;;;;;;4957250;29;20646;-86
2021/12/20 06:28:49;;;;;;;3.13;1.90;;;0.30;97.30;;;;;;4958430;29;20179;-83
2021/12/20 06:31:14;;;;;;;6.47;1.93;;;0.30;97.30;;;;;;4976849;28;20491;-83
2021/12/20 06:33:40;;;;;;;9.60;2.67;;;0.30;97.30;;;;;;4944885;29;20415;-85
2021/12/20 06:36:05;;;;;;;6.17;2.03;;;0.30;97.30;;;;;;4974614;28;20278;-83
2021/12/20 06:38:32;;;;;;;4.87;1.97;;;0.30;97.30;;;;;;4984994;28;20183;-86
2021/12/20 06:40:58;;;;;;;7.63;2.70;;;0.30;97.30;;;;;;4980008;28;20198;-86
2021/12/20 06:43:24;;;;;;;8.17;2.00;;;0.30;97.30;;;;;;4977025;28;20421;-86
2021/12/20 06:45:50;;;;;;;11.50;2.40;;;0.20;97.30;;;;;;4961508;28;20185;-86
2021/12/20 06:48:15;;;;;;;4.40;2.30;;;0.20;97.30;;;;;;4976916;28;20462;-86
2021/12/20 06:50:41;;;;;;;7.40;2.87;;;0.20;97.30;;;;;;4971932;28;20201;-86
2021/12/20 06:53:07;;;;;;;3.50;1.90;;;0.20;97.30;;;;;;4967474;28;20926;-85
2021/12/20 06:55:34;;;;;;;10.37;3.20;;;0.10;97.30;;;;;;4948922;29;20189;-85
2021/12/20 06:57:59;;;;;;;3.90;2.17;;;0.10;97.30;;;;;;4958915;29;20434;-85
2021/12/20 07:00:26;;;;;;;6.77;1.93;;;0.10;97.30;;;;;;4977657;28;20425;-86
2021/12/20 07:02:52;;;;;;;19.53;2.80;;;0.00;97.30;;;;;;4997878;28;20240;-85
2021/12/20 07:05:18;;;;;;;4.83;2.27;;;0.00;97.30;;;;;;4965679;28;20424;-86
2021/12/20 07:07:43;;;;;;;8.13;2.67;;;0.00;97.30;;;;;;4982026;28;20562;-86
2021/12/20 07:10:09;;;;;;;8.17;2.50;;;0.00;97.30;;;;;;4972074;28;20662;-86
2021/12/20 07:12:37;;;;;;;4.53;2.17;;;0.00;97.30;;;;;;4961804;28;20249;-86
2021/12/20 07:15:04;;;;;;;5.67;2.07;;;0.00;97.30;;;;;;4968317;28;20463;-86
2021/12/20 07:17:30;;;;;;;7.13;2.10;;;0.00;97.30;;;;;;4982009;28;20425;-86
2021/12/20 07:19:57;;;;;;;5.00;1.80;;;0.00;97.30;;;;;;4999073;28;20423;-86
2021/12/20 07:22:26;;;;;;;12.23;4.13;;;0.00;97.30;;;;;;4982104;28;20445;-85
2021/12/20 07:24:51;;;;;;;9.77;2.17;;;0.00;97.30;;;;;;4982657;28;20491;-85
2021/12/20 07:27:18;;;;;;;19.93;2.73;;;0.00;97.30;;;;;;4982042;28;21051;-85
2021/12/20 07:29:44;;;;;;;6.53;2.00;;;0.00;97.30;;;;;;4982563;28;20178;-86
2021/12/20 07:32:11;;;;;;;11.53;2.37;;;0.00;97.30;;;;;;5000048;28;20436;-86
2021/12/20 07:34:37;;;;;;;16.00;2.57;;;0.00;97.30;;;;;;4981807;28;20493;-86
2021/12/20 07:37:03;;;;;;;9.00;2.77;;;0.00;97.30;;;;;;4963047;28;20585;-86
2021/12/20 07:39:29;;;;;;;9.43;2.50;;;0.00;97.30;;;;;;4963513;28;20422;-86
2021/12/20 07:41:54;;;;;;;15.10;2.83;;;0.00;97.30;;;;;;4974691;28;20444;-86
2021/12/20 07:44:21;;;;;;;9.33;2.10;;;0.00;97.30;;;;;;4982709;28;20182;-85
2021/12/20 07:46:47;;;;;;;6.87;2.20;;;0.00;97.30;;;;;;4999347;28;20258;-86
2021/12/20 07:49:12;;;;;;;8.93;2.10;;;0.00;97.30;;;;;;4999996;28;20460;-86
2021/12/20 07:51:38;;;;;;;4.07;1.87;;;0.00;97.30;;;;;;4982141;28;20579;-86
2021/12/20 07:54:03;;;;;;;10.17;3.00;;;0.10;97.30;;;;;;5000449;28;20198;-86
2021/12/20 07:56:29;;;;;;;5.67;2.30;;;0.10;97.30;;;;;;4982414;28;20209;-86
2021/12/20 07:58:54;;;;;;;13.80;3.23;;;0.20;97.30;;;;;;4983129;28;20186;-86
2021/12/20 08:01:20;;;;;;;7.73;1.90;;;0.20;97.30;;;;;;4981575;28;20739;-85
2021/12/20 08:03:46;;;;;;;13.97;3.07;;;0.30;97.30;;;;;;4982343;28;20180;-86
2021/12/20 08:06:11;;;;;;;12.77;2.33;;;0.30;97.30;;;;;;4980825;28;20273;-85
2021/12/20 08:08:37;;;;;;;10.70;2.40;;;0.30;97.30;;;;;;4980273;28;20216;-86
2021/12/20 08:11:03;;;;;;;7.33;2.30;;;0.30;97.30;;;;;;4981404;28;20198;-86
2021/12/20 08:13:31;;;;;;;3.70;2.30;;;0.40;97.30;;;;;;4998317;28;20183;-85
2021/12/20 08:15:56;;;;;;;5.63;2.13;;;0.40;97.30;;;;;;4979916;28;20421;-85
2021/12/20 08:18:22;;;;;;;12.43;2.53;;;0.50;97.30;;;;;;4981232;28;20452;-86
2021/12/20 08:20:48;;;;;;;12.00;2.83;;;0.50;97.30;;;;;;4980492;28;20255;-86
2021/12/20 08:23:13;;;;;;;12.40;3.40;;;0.60;97.30;;;;;;4980932;28;20236;-85
2021/12/20 08:25:39;;;;;;;10.17;2.90;;;0.60;97.30;;;;;;4981700;28;20420;-85
2021/12/20 08:28:09;;;;;;;13.57;3.70;;;0.60;97.30;;;;;;4984753;28;20343;-86
2021/12/20 08:30:34;;;;;;;8.60;3.50;;;0.80;97.30;;;;;;4993183;28;20781;-86
2021/12/20 08:33:00;;;;;;;18.57;4.80;;;1.20;97.30;;;;;;4983688;28;20428;-84
2021/12/20 08:35:26;;;;;;;7.20;2.73;;;1.30;97.30;;;;;;4984255;28;20181;-85
2021/12/20 08:37:53;;;;;;;14.43;3.70;;;1.60;97.30;;;;;;4975690;28;20264;-85
2021/12/20 08:40:19;;;;;;;7.07;3.27;;;1.90;97.30;;;;;;4962368;28;20425;-85
2021/12/20 08:42:46;;;;;;;12.97;2.50;;;2.30;97.30;;;;;;4964120;28;20429;-85
2021/12/20 08:45:13;;;;;;;8.40;2.50;;;2.70;97.30;;;;;;4964585;28;20485;-85
2021/12/20 08:47:40;;;;;;;15.37;2.50;;;2.90;97.30;;;;;;4982840;28;20457;-84
2021/12/20 08:50:10;;;;;;;16.33;2.47;;;2.70;97.30;;;;;;4982225;28;20422;-83
2021/12/20 08:52:36;;;;;;;6.53;2.07;;;2.40;97.30;;;;;;5001179;28;20535;-83
2021/12/20 08:55:01;;;;;;;8.53;2.50;;;2.30;97.30;;;;;;4985651;28;20463;-84
2021/12/20 08:57:27;;;;;;;7.43;2.10;;;2.10;97.30;;;;;;4999345;28;20867;-84
2021/12/20 08:59:52;;;;;;;10.93;2.80;;;2.00;97.30;;;;;;4984317;28;20173;-83
2021/12/20 09:02:18;;;;;;;6.43;2.00;;;2.00;97.30;;;;;;5000337;28;20237;-85
2021/12/20 09:04:43;;;;;;;12.97;3.07;;;1.90;97.30;;;;;;4984637;28;20256;-84
2021/12/20 09:07:15;;;;;;;6.20;2.43;;;1.90;97.30;;;;;;4983881;28;20194;-84
2021/12/20 09:09:43;;;;;;;12.73;2.23;;;1.80;97.30;;;;;;4983524;28;20174;-85
2021/12/20 09:12:09;;;;;;;15.50;3.00;;;1.80;97.30;;;;;;4983789;28;20435;-84
2021/12/20 09:14:35;;;;;;;6.63;2.03;;;1.90;97.30;;;;;;4984882;28;20506;-83
2021/12/20 09:17:02;;;;;;;7.23;2.00;;;1.90;97.30;;;;;;4984432;28;20205;-84
2021/12/20 09:19:28;;;;;;;9.67;2.60;;;1.90;97.30;;;;;;4985320;28;20476;-84
2021/12/20 09:21:54;;;;;;;12.60;2.80;;;1.90;97.30;;;;;;4985317;28;20472;-83
2021/12/20 09:24:20;;;;;;;5.37;3.43;;;1.90;97.30;;;;;;4984911;28;20503;-84
2021/12/20 09:26:45;;;;;;;5.97;2.50;;;2.00;97.30;;;;;;4985534;28;20174;-83
2021/12/20 09:29:11;;;;;;;4.53;2.10;;;2.00;97.30;;;;;;4986433;28;20177;-84
2021/12/20 09:31:36;;;;;;;4.03;2.40;;;2.00;97.30;;;;;;4987932;28;20201;-84
2021/12/20 09:34:02;;;;;;;5.07;2.20;;;2.00;97.30;;;;;;4988257;28;20178;-84
2021/12/20 09:36:32;;;;;;;4.13;2.10;;;2.10;97.30;;;;;;4988115;28;20640;-84
2021/12/20 09:38:59;;;;;;;5.50;1.87;;;2.10;97.30;;;;;;4987075;28;20180;-84
2021/12/20 09:44:01;;;;;;;11.57;2.47;;;2.20;97.30;;;;;;4994310;28;20421;-85
2021/12/20 09:46:28;;;;;;;2.50;1.80;;;2.20;97.30;;;;;;4985121;28;20421;-84
2021/12/20 09:48:54;;;;;;;9.50;2.30;;;2.20;97.30;;;;;;4984304;28;20446;-85
2021/12/20 09:51:20;;;;;;;7.87;2.00;;;2.30;97.30;;;;;;4983923;28;20451;-85
2021/12/20 09:53:47;;;;;;;10.50;2.27;;;2.30;97.30;;;;;;4984432;28;20422;-84
2021/12/20 09:56:13;;;;;;;11.13;2.30;;;2.30;97.30;;;;;;4982954;28;20421;-85
2021/12/20 09:58:41;;;;;;;2.87;1.90;;;2.40;97.30;;;;;;4982819;28;20420;-84
2021/12/20 10:01:10;;;;;;;6.90;2.17;;;2.40;97.30;;;;;;4984305;28;20444;-83
2021/12/20 10:03:36;;;;;;;8.97;2.20;;;2.40;97.30;;;;;;4982033;28;20445;-84
2021/12/20 10:06:03;;;;;;;6.30;2.30;;;2.50;97.30;;;;;;4984277;28;20826;-85
2021/12/20 10:08:36;;;;;;;5.73;1.97;;;2.50;97.30;;;;;;4983788;28;20560;-84
2021/12/20 10:11:17;;;;;;;8.93;2.20;;;2.60;97.30;;;;;;4983478;28;20441;-84
2021/12/20 10:13:42;;;;;;;5.17;2.13;;;2.70;97.30;;;;;;4984296;28;20423;-85
2021/12/20 10:16:21;;;;;;;2.83;2.10;;;2.80;97.30;;;;;;4973433;28;20489;-85
2021/12/20 10:18:47;;;;;;;6.27;2.23;;;2.90;97.30;;;;;;4977469;28;20213;-84
2021/12/20 10:21:13;;;;;;;4.90;1.60;;;3.00;97.30;;;;;;4988425;28;20464;-84
2021/12/20 10:23:47;;;;;;;4.23;1.80;;;3.00;97.30;;;;;;4985605;28;20432;-84
2021/12/20 10:26:18;;;;;;;7.63;2.17;;;3.10;97.30;;;;;;4984389;28;20504;-84
2021/12/20 10:28:44;;;;;;;3.53;2.13;;;3.20;97.30;;;;;;4984584;28;20452;-83
2021/12/20 10:31:16;;;;;;;5.20;2.20;;;3.20;97.30;;;;;;5003331;28;20444;-82
2021/12/20 10:33:50;;;;;;;7.90;2.37;;;3.30;97.30;;;;;;4985833;28;20421;-82
2021/12/20 10:36:15;;;;;;;6.47;2.10;;;3.30;97.30;;;;;;5002384;28;20452;-83
2021/12/20 10:38:44;;;;;;;9.30;2.80;;;3.30;97.30;;;;;;5001098;28;20565;-85
2021/12/20 10:41:12;;;;;;;5.63;2.33;;;3.40;97.30;;;;;;4984721;28;20204;-84
2021/12/20 10:43:47;;;;;;;15.80;3.10;;;3.40;97.30;;;;;;4985432;28;21125;-81
2021/12/20 10:46:14;;;;;;;8.37;2.70;;;3.40;97.30;;;;;;4985347;28;20412;-83
2021/12/20 10:48:40;;;;;;;3.30;2.20;;;3.40;97.30;;;;;;4983734;28;20500;-81
2021/12/20 10:51:17;;;;;;;8.20;2.07;;;3.40;97.30;;;;;;4984081;28;20449;-82
2021/12/20 10:53:48;;;;;;;10.50;2.67;;;3.50;97.30;;;;;;4980429;28;20416;-81
2021/12/20 10:56:13;;;;;;;7.73;2.27;;;3.60;97.30;;;;;;4999320;28;20441;-81
2021/12/20 10:58:39;;;;;;;8.10;2.30;;;3.80;97.30;;;;;;4985362;28;20475;-83
2021/12/20 11:01:47;;;;;;;4.00;2.03;;;3.90;97.30;;;;;;4973325;28;20664;-81
2021/12/20 11:04:17;;;;;;;7.60;2.50;;;4.00;97.30;;;;;;4996977;28;20487;-82
2021/12/20 11:09:43;;;;;;;5.47;2.40;;;4.20;97.30;;;;;;5004377;28;20439;-81
2021/12/20 11:12:12;;;;;;;11.07;3.90;;;4.30;97.30;;;;;;4981618;28;20525;-82
2021/12/20 11:14:42;;;;;;;5.77;2.17;;;4.30;97.30;;;;;;4984937;28;20508;-82
2021/12/20 11:17:11;;;;;;;7.03;2.77;;;4.30;97.30;;;;;;4984030;28;20425;-82
2021/12/20 11:19:38;;;;;;;3.67;2.20;;;4.20;97.30;;;;;;4983836;28;20422;-81
2021/12/20 11:22:07;;;;;;;5.20;1.90;;;4.10;97.30;;;;;;4984465;28;20438;-81
2021/12/20 11:24:52;;;;;;;4.60;2.17;;;4.10;97.30;;;;;;5006911;28;20422;-82
2021/12/20 11:27:21;;;;;;;9.03;2.60;;;4.20;97.30;;;;;;4986624;28;20445;-82
2021/12/20 11:29:48;;;;;;;5.63;2.20;;;4.30;97.30;;;;;;4984254;28;20414;-82
2021/12/20 11:32:15;;;;;;;5.50;2.20;;;4.40;97.30;;;;;;4984547;28;20473;-81
2021/12/20 11:34:42;;;;;;;4.40;2.60;;;4.60;97.30;;;;;;4984348;28;20414;-82
2021/12/20 11:37:13;;;;;;;10.03;2.60;;;4.80;97.30;;;;;;4984974;28;20425;-81
2021/12/20 11:39:38;;;;;;;6.00;2.07;;;4.80;97.30;;;;;;4963404;28;20512;-82
2021/12/20 11:42:06;;;;;;;5.50;2.50;;;4.80;97.30;;;;;;4962794;28;20468;-82
2021/12/20 11:44:32;;;;;;;5.50;2.23;;;4.90;97.30;;;;;;4979674;28;20232;-82
2021/12/20 11:47:27;;;;;;;6.97;2.20;;;5.00;97.30;;;;;;4982961;28;20463;-82
2021/12/20 11:49:59;;;;;;;5.43;2.27;;;5.10;97.30;;;;;;4982523;28;20911;-82
2021/12/20 11:52:30;;;;;;;4.20;2.20;;;5.40;97.30;;;;;;4981932;28;20440;-82
2021/12/20 11:54:56;;;;;;;4.90;2.20;;;5.60;97.30;;;;;;4982446;28;20420;-83
2021/12/20 11:57:27;;;;;;;3.37;1.80;;;5.60;97.30;;;;;;4999758;28;20416;-82
2021/12/20 11:59:55;;;;;;;6.53;2.97;;;5.70;97.30;;;;;;4962727;28;20174;-82
2021/12/20 12:02:29;;;;;;;9.13;2.07;;;5.80;97.30;;;;;;4977901;28;20480;-82
2021/12/20 12:05:00;;;;;;;9.97;2.10;;;5.80;97.30;;;;;;4979862;28;20429;-81
2021/12/20 12:07:31;;;;;;;6.60;2.27;;;5.80;97.30;;;;;;5008400;28;20466;-81
2021/12/20 12:10:13;;;;;;;6.63;2.33;;;5.80;97.30;;;;;;4979622;28;20424;-82
2021/12/20 12:12:42;;;;;;;6.10;2.63;;;5.70;97.30;;;;;;4979365;28;20441;-82
2021/12/20 12:15:28;;;;;;;4.00;1.80;;;5.80;97.30;;;;;;4978268;28;20445;-81
2021/12/20 12:17:55;;;;;;;3.60;1.97;;;5.90;97.30;;;;;;4978427;28;20461;-81
2021/12/20 12:20:39;;;;;;;6.10;2.43;;;5.90;97.30;;;;;;4994086;28;20495;-83
2021/12/20 12:23:10;;;;;;;6.17;2.60;;;5.80;97.30;;;;;;4985731;28;20433;-82
2021/12/20 12:25:40;;;;;;;8.27;2.03;;;5.60;97.30;;;;;;4984043;28;20955;-81
2021/12/20 12:28:06;;;;;;;7.00;1.90;;;5.60;97.30;;;;;;4983781;28;20823;-81
2021/12/20 12:30:34;;;;;;;9.83;2.10;;;5.70;97.30;;;;;;4981836;28;20447;-84
2021/12/20 12:33:02;;;;;;;10.27;1.93;;;5.60;97.30;;;;;;4999993;28;20409;-82
2021/12/20 12:35:51;;;;;;;8.57;3.03;;;5.50;97.30;;;;;;4981228;28;20566;-84
2021/12/20 12:38:33;;;;;;;8.03;2.23;;;5.20;97.30;;;;;;4982194;28;20499;-83
2021/12/20 12:41:05;;;;;;;5.67;1.90;;;5.10;97.30;;;;;;4999089;28;20864;-83
2021/12/20 12:43:59;;;;;;;5.27;2.23;;;5.00;97.30;;;;;;4981945;28;20424;-83
2021/12/20 12:46:41;;;;;;;4.47;1.87;;;5.00;97.30;;;;;;4982176;28;20446;-84
2021/12/20 12:49:19;;;;;;;9.13;2.23;;;4.90;97.30;;;;;;4981310;28;20553;-83
2021/12/20 12:51:46;;;;;;;12.63;2.57;;;4.90;97.30;;;;;;4982005;28;20467;-84
2021/12/20 12:54:43;;;;;;;13.70;2.70;;;4.70;97.30;;;;;;4982323;28;20422;-83
2021/12/20 12:57:08;;;;;;;4.37;1.87;;;4.80;97.30;;;;;;4981119;28;20417;-83
2021/12/20 12:59:55;;;;;;;5.43;2.50;;;4.70;97.30;;;;;;4981313;28;20437;-87
2021/12/20 13:02:30;;;;;;;6.90;2.30;;;4.70;97.30;;;;;;4981937;28;20241;-83
2021/12/20 13:05:00;;;;;;;8.40;2.47;;;4.60;97.30;;;;;;4981326;28;20424;-82
2021/12/20 13:07:29;;;;;;;6.27;2.27;;;4.70;97.30;;;;;;4980311;28;20452;-83
2021/12/20 13:09:58;;;;;;;2.40;1.93;;;4.70;97.30;;;;;;4979247;28;20422;-83
2021/12/20 13:15:27;;;;;;;4.70;2.23;;;5.10;97.30;;;;;;4998290;28;20452;-83
2021/12/20 13:17:59;;;;;;;8.30;2.60;;;5.30;97.30;;;;;;4980803;28;20935;-83
2021/12/20 13:20:44;;;;;;;8.97;2.53;;;5.30;97.30;;;;;;4981356;28;20421;-84
2021/12/20 13:23:13;;;;;;;6.53;2.30;;;5.50;97.30;;;;;;4979951;28;20479;-83